createdAt,value
2023-01-23T00:03:41.590Z,10.17
2023-01-23T00:07:44.692Z,10.90
2023-01-23T00:11:47.809Z,11.37
2023-01-23T00:15:52.662Z,10.40
2023-01-23T00:19:55.973Z,10.43
2023-01-23T00:24:01.478Z,10.77
2023-01-23T00:28:05.069Z,10.90
2023-01-23T00:32:09.728Z,11.10
2023-01-23T00:36:15.019Z,11.37
2023-01-23T00:40:18.523Z,11.30
2023-01-23T00:44:21.888Z,11.37
2023-01-23T00:48:26.558Z,10.47
2023-01-23T00:52:30.351Z,10.90
2023-01-23T00:56:33.818Z,10.73
2023-01-23T01:00:37.146Z,10.67
2023-01-23T01:04:41.689Z,11.40
2023-01-23T01:08:44.853Z,10.83
2023-01-23T01:12:47.957Z,11.60
2023-01-23T01:16:51.122Z,11.00
2023-01-23T01:20:56.269Z,11.30
2023-01-23T01:24:59.373Z,12.17
2023-01-23T01:29:02.492Z,10.07
2023-01-23T01:33:05.746Z,11.37
2023-01-23T01:37:10.163Z,11.80
2023-01-23T01:41:14.590Z,11.80
2023-01-23T01:45:54.990Z,11.93
2023-01-23T01:50:01.247Z,12.33
2023-01-23T01:54:10.926Z,12.30
2023-01-23T01:58:15.191Z,12.00
2023-01-23T02:02:23.738Z,11.90
2023-01-23T02:06:27.555Z,11.93
2023-01-23T02:10:32.498Z,12.60
2023-01-23T02:14:36.385Z,12.33
2023-01-23T02:18:44.695Z,11.80
2023-01-23T02:22:54.002Z,12.23
2023-01-23T02:26:58.486Z,11.80
2023-01-23T02:31:02.746Z,13.40
2023-01-23T02:35:12.820Z,12.83
2023-01-23T02:39:19.209Z,11.40
2023-01-23T02:43:35.284Z,12.77
2023-01-23T02:47:41.504Z,12.20
2023-01-23T02:51:44.643Z,11.20
2023-01-23T02:55:47.664Z,11.43
2023-01-23T03:00:09.986Z,12.87
2023-01-23T03:04:13.091Z,11.80
2023-01-23T03:08:16.061Z,11.90
2023-01-23T03:12:20.440Z,11.20
2023-01-23T03:16:24.895Z,12.37
2023-01-23T03:20:28.747Z,12.33
2023-01-23T03:24:35.049Z,11.47
2023-01-23T03:28:55.730Z,12.67
2023-01-23T03:33:00.222Z,11.10
2023-01-23T03:37:04.443Z,12.27
2023-01-23T03:41:23.376Z,10.63
2023-01-23T03:45:27.297Z,11.63
2023-01-23T03:49:32.358Z,10.63
2023-01-23T03:53:35.740Z,11.73
2023-01-23T03:57:41.819Z,10.83
2023-01-23T04:02:04.898Z,12.20
2023-01-23T04:06:11.268Z,12.03
2023-01-23T04:10:14.655Z,12.50
2023-01-23T04:14:18.731Z,12.93
2023-01-23T04:18:21.955Z,12.10
2023-01-23T04:22:26.395Z,12.50
2023-01-23T04:26:29.454Z,11.57
2023-01-23T04:30:32.683Z,14.00
2023-01-23T04:34:42.279Z,10.70
2023-01-23T04:38:47.479Z,11.20
2023-01-23T04:42:57.065Z,11.57
2023-01-23T04:47:08.656Z,10.57
2023-01-23T04:51:11.805Z,10.23
2023-01-23T04:55:16.594Z,9.40
2023-01-23T04:59:21.035Z,9.83
2023-01-23T05:03:24.647Z,8.87
2023-01-23T05:07:28.557Z,9.13
2023-01-23T05:11:43.906Z,8.63
2023-01-23T05:15:49.215Z,8.97
2023-01-23T05:19:53.307Z,8.33
2023-01-23T05:23:56.379Z,10.13
2023-01-23T05:28:00.963Z,9.03
2023-01-23T05:32:04.138Z,9.67
2023-01-23T05:36:13.268Z,10.07
2023-01-23T05:40:16.477Z,10.23
2023-01-23T05:44:40.803Z,9.80
2023-01-23T05:48:51.633Z,9.70
2023-01-23T05:52:56.323Z,9.77
2023-01-23T05:56:59.618Z,10.43
2023-01-23T06:01:29.749Z,9.07
2023-01-23T06:05:55.850Z,8.50
2023-01-23T06:09:59.100Z,8.17
2023-01-23T06:14:02.879Z,8.23
2023-01-23T06:18:07.649Z,8.97
2023-01-23T06:22:10.716Z,9.43
2023-01-23T06:26:31.934Z,9.33
2023-01-23T06:30:35.603Z,9.80
2023-01-23T06:34:43.142Z,9.40
2023-01-23T06:38:47.281Z,9.47
2023-01-23T06:42:55.800Z,10.43
2023-01-23T06:46:59.425Z,9.07
2023-01-23T06:51:04.636Z,10.13
2023-01-23T06:55:08.421Z,9.20
2023-01-23T06:59:11.635Z,9.27
2023-01-23T07:03:16.205Z,8.70
2023-01-23T07:07:20.814Z,8.40
2023-01-23T07:11:25.782Z,8.67
2023-01-23T07:15:32.411Z,8.43
2023-01-23T07:19:35.433Z,8.10
2023-01-23T07:23:43.895Z,7.67
2023-01-23T07:27:46.985Z,8.40
2023-01-23T07:31:50.111Z,7.27
2023-01-23T07:35:53.336Z,7.83
2023-01-23T07:39:57.738Z,8.20
2023-01-23T07:44:00.786Z,7.73
2023-01-23T07:48:04.043Z,7.30
2023-01-23T07:52:07.235Z,8.20
2023-01-23T07:56:11.726Z,7.83
2023-01-23T08:00:15.240Z,7.97
2023-01-23T08:04:18.476Z,8.53
2023-01-23T08:08:21.555Z,8.40
2023-01-23T08:12:26.077Z,9.13
2023-01-23T08:16:29.411Z,16.30
2023-01-23T08:20:32.476Z,10.83
2023-01-23T08:24:35.832Z,8.63
2023-01-23T08:28:40.431Z,8.23
2023-01-23T08:32:43.559Z,8.93
2023-01-23T08:36:46.890Z,8.60
2023-01-23T08:40:51.777Z,8.73
2023-01-23T08:44:56.287Z,8.60
2023-01-23T08:48:59.324Z,8.37
2023-01-23T08:53:02.334Z,8.83
2023-01-23T08:57:05.597Z,9.63
2023-01-23T09:01:14.001Z,10.40
2023-01-23T09:05:17.420Z,9.23
2023-01-23T09:09:20.423Z,8.60
2023-01-23T09:13:23.675Z,8.73
2023-01-23T09:17:28.500Z,8.57
2023-01-23T09:21:31.559Z,9.57
2023-01-23T09:25:34.593Z,9.17
2023-01-23T09:29:37.764Z,9.17
2023-01-23T09:33:43.054Z,9.53
2023-01-23T09:38:01.231Z,7.90
2023-01-23T09:42:08.463Z,8.03
2023-01-23T09:46:19.143Z,9.03
2023-01-23T09:50:28.977Z,7.90
2023-01-23T09:54:39.936Z,8.63
2023-01-23T09:58:47.420Z,8.40
2023-01-23T10:02:50.656Z,8.67
2023-01-23T10:07:18.317Z,8.50
2023-01-23T10:11:30.699Z,8.60
2023-01-23T10:15:52.769Z,8.23
2023-01-23T10:20:15.198Z,12.17
2023-01-23T10:24:40.596Z,9.40
2023-01-23T10:28:45.358Z,7.80
2023-01-23T10:32:52.655Z,7.57
2023-01-23T10:37:06.458Z,7.20
2023-01-23T10:41:21.148Z,7.03
2023-01-23T10:45:26.292Z,7.37
2023-01-23T10:49:31.417Z,7.15
2023-01-23T10:53:44.542Z,8.70
2023-01-23T10:57:51.091Z,6.40
2023-01-23T11:02:00.039Z,7.05
2023-01-23T11:06:05.312Z,7.20
2023-01-23T11:10:21.775Z,14.38
2023-01-23T11:14:26.122Z,7.47
2023-01-23T11:18:36.105Z,7.05
2023-01-23T11:22:42.199Z,6.57
2023-01-23T11:26:45.682Z,6.65
2023-01-23T11:31:00.887Z,6.68
2023-01-23T11:35:16.009Z,6.50
2023-01-23T11:39:32.308Z,6.72
2023-01-23T11:43:35.546Z,7.07
2023-01-23T11:48:00.931Z,6.47
2023-01-23T11:52:22.791Z,7.13
2023-01-23T11:56:44.970Z,6.80
2023-01-23T12:00:56.883Z,6.53
2023-01-23T12:05:24.529Z,7.13
2023-01-23T12:09:34.225Z,7.03
2023-01-23T12:13:50.451Z,6.47
2023-01-23T12:22:20.258Z,6.20
2023-01-23T12:26:27.079Z,6.63
2023-01-23T12:31:09.763Z,6.07
2023-01-23T12:35:28.088Z,15.85
2023-01-23T12:39:54.865Z,13.05
2023-01-23T12:44:03.447Z,7.30
2023-01-23T12:48:12.865Z,6.72
2023-01-23T12:52:24.416Z,6.45
2023-01-23T12:56:31.751Z,6.38
2023-01-23T13:00:55.312Z,7.32
2023-01-23T13:05:10.659Z,6.57
2023-01-23T13:09:23.862Z,7.43
2023-01-23T13:13:28.773Z,6.63
2023-01-23T13:17:37.771Z,7.55
2023-01-23T13:21:58.554Z,9.95
2023-01-23T13:26:31.427Z,8.25
2023-01-23T13:30:45.789Z,6.22
2023-01-23T13:34:48.823Z,6.05
2023-01-23T13:39:25.377Z,7.95
2023-01-23T13:43:44.288Z,6.15
2023-01-23T14:23:51.877Z,6.00
2023-01-23T14:28:04.505Z,11.38
2023-01-23T14:32:23.349Z,10.07
2023-01-23T14:36:26.405Z,5.95
2023-01-23T14:40:43.089Z,5.75
2023-01-23T14:44:53.254Z,5.93
2023-01-23T14:48:57.467Z,6.00
2023-01-23T14:53:02.355Z,5.68
2023-01-23T14:57:10.273Z,4.78
2023-01-23T15:01:13.496Z,5.28
2023-01-23T15:05:23.516Z,5.50
2023-01-23T15:09:31.210Z,7.70
2023-01-23T15:13:41.787Z,5.90
2023-01-23T15:17:45.658Z,6.10
2023-01-23T15:21:48.754Z,5.53
2023-01-23T15:26:10.651Z,5.85
2023-01-23T15:30:43.410Z,6.07
2023-01-23T15:34:55.004Z,5.47
2023-01-23T15:39:00.002Z,5.60
2023-01-23T15:43:05.762Z,5.57
2023-01-23T15:47:10.835Z,5.90
2023-01-23T15:51:14.426Z,4.75
2023-01-23T15:55:17.906Z,5.93
2023-01-23T15:59:21.583Z,6.03
2023-01-23T16:03:26.246Z,6.18
2023-01-23T16:07:34.435Z,5.85
2023-01-23T16:11:38.846Z,7.00
2023-01-23T16:15:42.020Z,5.53
2023-01-23T16:19:46.515Z,6.60
2023-01-23T16:23:49.828Z,6.47
2023-01-23T16:27:52.884Z,6.57
2023-01-23T16:31:57.003Z,6.47
2023-01-23T16:36:02.453Z,5.97
2023-01-23T16:40:06.309Z,6.70
2023-01-23T16:44:11.518Z,5.88
2023-01-23T16:48:25.373Z,6.38
2023-01-23T16:52:31.574Z,6.28
2023-01-23T16:56:39.107Z,6.15
2023-01-23T17:00:43.516Z,7.03
2023-01-23T17:04:46.894Z,6.90
2023-01-23T17:08:52.421Z,6.03
2023-01-23T17:12:58.174Z,6.85
2023-01-23T17:17:06.080Z,6.72
2023-01-23T17:21:15.191Z,6.65
2023-01-23T17:25:21.681Z,7.32
2023-01-23T17:29:24.793Z,7.07
2023-01-23T17:33:32.259Z,7.80
2023-01-23T17:37:36.314Z,7.47
2023-01-23T17:41:40.764Z,7.57
2023-01-23T17:45:45.857Z,7.63
2023-01-23T17:49:54.472Z,7.60
2023-01-23T17:53:58.981Z,7.32
2023-01-23T17:58:03.392Z,7.05
2023-01-23T18:02:23.858Z,7.28
2023-01-23T18:06:29.635Z,7.60
2023-01-23T18:10:35.130Z,8.05
2023-01-23T18:14:48.157Z,7.22
2023-01-23T18:18:53.940Z,6.93
2023-01-23T18:22:57.928Z,8.23
2023-01-23T18:27:09.874Z,7.53
2023-01-23T18:31:19.770Z,8.07
2023-01-23T18:35:35.207Z,8.18
2023-01-23T18:39:50.133Z,7.70
2023-01-23T18:44:03.664Z,9.05
2023-01-23T18:48:24.613Z,7.75
2023-01-23T18:52:42.600Z,7.65
2023-01-23T18:56:57.476Z,7.93
2023-01-23T19:01:16.213Z,8.20
2023-01-23T19:05:29.072Z,8.18
2023-01-23T19:09:35.236Z,8.05
2023-01-23T19:13:45.363Z,8.07
2023-01-23T19:17:52.287Z,8.35
2023-01-23T19:21:57.474Z,8.05
2023-01-23T19:26:00.968Z,8.15
2023-01-23T19:30:04.670Z,8.60
2023-01-23T19:34:08.519Z,9.18
2023-01-23T19:38:14.948Z,8.15
2023-01-23T19:42:18.055Z,9.43
2023-01-23T19:46:22.197Z,8.98
2023-01-23T19:50:25.260Z,8.27
2023-01-23T19:54:29.855Z,8.10
2023-01-23T19:58:33.024Z,8.82
2023-01-23T20:02:36.081Z,8.38
2023-01-23T20:06:40.824Z,8.52
2023-01-23T20:10:45.261Z,8.70
2023-01-23T20:14:48.681Z,9.07
2023-01-23T20:18:53.523Z,8.82
2023-01-23T20:22:56.568Z,8.52
2023-01-23T20:27:00.995Z,7.85
2023-01-23T20:31:08.644Z,7.97
2023-01-23T20:35:12.501Z,8.10
2023-01-23T20:39:16.245Z,8.77
2023-01-23T20:43:20.797Z,7.70
2023-01-23T20:47:23.884Z,8.60
2023-01-23T20:51:27.470Z,8.32
2023-01-23T20:55:30.472Z,8.15
2023-01-23T20:59:35.050Z,7.88
2023-01-23T21:03:40.273Z,8.43
2023-01-23T21:07:43.336Z,9.10
2023-01-23T21:11:46.413Z,8.18
2023-01-23T21:15:59.255Z,7.40
2023-01-23T21:20:02.412Z,8.40
2023-01-23T21:24:05.730Z,6.40
2023-01-23T21:28:08.874Z,7.97
2023-01-23T21:32:13.408Z,7.90
2023-01-23T21:36:19.091Z,7.95
2023-01-23T21:40:22.319Z,7.95
2023-01-23T21:44:25.329Z,7.28
2023-01-23T21:48:31.474Z,7.90
2023-01-23T21:52:34.529Z,7.85
2023-01-23T21:56:37.556Z,7.38
2023-01-23T22:00:58.330Z,7.35
2023-01-23T22:05:02.802Z,6.95
2023-01-23T22:09:06.844Z,6.78
2023-01-23T22:13:09.887Z,7.65
2023-01-23T22:17:12.898Z,6.97
2023-01-23T22:21:17.294Z,7.72
2023-01-23T22:25:20.526Z,7.78
2023-01-23T22:29:23.884Z,6.90
2023-01-23T22:33:39.481Z,7.22
2023-01-23T22:37:44.701Z,7.45
2023-01-23T22:41:48.483Z,7.20
2023-01-23T22:45:51.604Z,6.40
2023-01-23T22:49:54.597Z,6.85
2023-01-23T22:54:00.014Z,7.10
2023-01-23T22:58:03.067Z,6.95
2023-01-23T23:02:06.311Z,7.22
2023-01-23T23:06:12.121Z,7.03
2023-01-23T23:10:16.590Z,6.75
2023-01-23T23:14:19.970Z,7.37
2023-01-23T23:18:23.038Z,6.32
2023-01-23T23:22:26.135Z,6.25
2023-01-23T23:26:32.320Z,6.28
2023-01-23T23:30:35.353Z,6.82
2023-01-23T23:34:38.396Z,6.28
2023-01-23T23:38:41.451Z,6.93
2023-01-23T23:42:46.092Z,6.47
2023-01-23T23:46:49.121Z,6.45
2023-01-23T23:50:52.746Z,6.72
2023-01-23T23:54:55.737Z,6.28
2023-01-23T23:59:00.242Z,6.18
